• Join FlightAware (Why Join?)
  • Login
  • US Flag 
08:19PM EST


 

Airport Tracker/Info


-or-


 

Live Flight TrackerFlight Track Log ✈ EGF4218 ✈ 07-Jun-2013 ✈ KORD - KTUL

Flight Track Log - Related Links

Times and Time Zones

All times are in EDT time to prevent confusion due to time zone crossing. See the EGF4218 flight status page for this flight to view local times or setup timezone preferences in your user account.

Time Position Orientation Groundspeed Altitude Reporting Facility
EDT Latitude Longitude Course Direction KTS MPH feet Rate Location/Type
11:24AM 41.9667 -87.8667 194° South 171 197 2,000  Level Chicago TRACON
11:25AM 41.9167 -87.8333 154° Southeast 240 276 3,500 1,740 Climbing Chicago TRACON
11:25AM 41.9050 -87.8272 159° South 244 281 4,100 2,160 Climbing Chicago Center
11:26AM 41.7810 -88.2216 203° Southwest  Level Estimated
11:26AM 41.8333 -87.8269 180° South 256 295 6,400  Level Chicago Center
11:27AM 41.7139 -88.3262 197° South  Level Estimated
11:27AM 41.7692 -87.8800 212° Southwest 274 315 8,500  Level Chicago Center
11:28AM 41.6208 -88.2675 155° Southeast  Level FlightAware Approximate
11:28AM 41.7036 -87.9339 212° Southwest 279 321 10,600  Level Chicago Center
11:29AM 41.5546 -88.3729 194° South  Level Estimated
11:29AM 41.6328 -87.9917 211° Southwest 298 343 12,300  Level Chicago Center
11:30AM 41.5419 -88.0664 212° Southwest 322 371 13,600 1,080 Climbing Chicago Center
11:31AM 41.4614 -88.1322 211° Southwest 346 398 14,600 960 Climbing Chicago Center
11:32AM 41.3753 -88.1956 209° Southwest 368 423 15,600 960 Climbing Chicago Center
11:34AM 41.2761 -88.2392 198° South 382 440 16,600 1,020 Climbing Chicago Center
11:35AM 41.1561 -88.2928 199° South 382 440 17,800 1,020 Climbing Chicago Center
11:36AM 41.0542 -88.3392 199° South 389 448 18,800 960 Climbing Chicago Center
11:37AM 40.9506 -88.3858 199° South 393 452 19,800 960 Climbing Chicago Center
11:38AM 40.8453 -88.4325 199° South 399 459 20,800 960 Climbing Chicago Center
11:39AM 40.7392 -88.4806 199° South 404 465 21,800 1,020 Climbing Chicago Center
11:40AM 40.6094 -88.5361 198° South 408 470 23,000 1,020 Climbing Chicago Center
11:41AM 40.5025 -88.5842 199° South 407 468 24,000 900 Climbing Chicago Center
11:42AM 40.4033 -88.6283 199° South 408 470 24,900 900 Climbing Chicago Center
11:43AM 40.3031 -88.6922 206° Southwest 409 471 25,900 1,020 Climbing Chicago Center
11:44AM 40.2219 -88.8256 231° Southwest 393 452 27,100 1,020 Climbing Chicago Center
11:45AM 40.1578 -88.9364 233° Southwest 385 443 28,100 960 Climbing Chicago Center
11:46AM 40.0922 -89.0467 232° Southwest 383 441 29,100 960 Climbing Chicago Center
11:47AM 40.0392 -89.1336 231° Southwest 381 438 29,900 480 Climbing Kansas City Center
11:48AM 39.9725 -89.2433 232° Southwest 382 440 30,000  Climbing Kansas City Center
11:49AM 39.9022 -89.3603 232° Southwest 398 458 30,000  Level Kansas City Center
11:50AM 39.8292 -89.4819 232° Southwest 415 478 30,000  Level Kansas City Center
11:51AM 39.7553 -89.6022 231° Southwest 421 484 30,000  Level Kansas City Center
11:52AM 39.6683 -89.7467 232° Southwest 422 486 30,000  Level Kansas City Center
11:53AM 39.5961 -89.8678 232° Southwest 423 487 30,000 240 Level Kansas City Center
11:54AM 39.5222 -89.9864 231° Southwest 425 489 30,600 720 Climbing Kansas City Center
11:55AM 39.4508 -90.1022 231° Southwest 418 481 31,600 660 Climbing Kansas City Center
11:56AM 39.3803 -90.2172 232° Southwest 413 475 32,000 -300 Climbing Kansas City Center
11:57AM 39.2919 -90.3603 231° Southwest 422 486 31,000 -1,020 Descending Kansas City Center
11:58AM 39.2175 -90.4800 231° Southwest 428 493 30,000 -480 Descending Kansas City Center
11:59AM 39.1411 -90.6014 231° Southwest 436 502 30,000  Level Kansas City Center
12:00PM 39.0669 -90.7192 231° Southwest 430 495 30,000  Level Kansas City Center
12:01PM 38.9919 -90.8400 231° Southwest 433 498 30,000  Level Kansas City Center
12:02PM 38.9014 -90.9842 231° Southwest 436 502 30,000  Level Kansas City Center
12:03PM 38.8253 -91.1050 231° Southwest 438 504 30,000  Level Kansas City Center
12:04PM 38.7489 -91.2250 231° Southwest 437 503 30,000  Level Kansas City Center
12:05PM 38.6719 -91.3464 231° Southwest 440 506 30,000  Level Kansas City Center
12:06PM 38.5839 -91.4850 231° Southwest 441 507 30,000  Level Kansas City Center
12:07PM 38.5047 -91.6058 230° Southwest 441 507 30,000  Level Kansas City Center
12:08PM 38.4256 -91.7267 230° Southwest 442 509 30,000  Level Kansas City Center
12:09PM 38.3464 -91.8489 230° Southwest 445 512 30,000  Level Kansas City Center
12:11PM 38.2667 -91.9692 230° Southwest 444 511 30,000  Level Kansas City Center
12:12PM 38.1850 -92.0953 231° Southwest 445 512 30,000  Level Kansas City Center
12:13PM 38.1050 -92.2147 230° Southwest 445 512 30,000  Level Kansas City Center
12:14PM 38.0078 -92.3619 230° Southwest 452 520 30,000  Level Kansas City Center
12:15PM 37.9292 -92.4836 231° Southwest 452 520 30,000  Level Kansas City Center
12:16PM 37.8486 -92.6022 229° Southwest 447 514 30,000  Level Kansas City Center
12:17PM 37.7686 -92.7228 230° Southwest 449 517 30,000  Level Kansas City Center
12:18PM 37.6794 -92.8564 230° Southwest 451 519 30,000  Level Kansas City Center
12:19PM 37.5967 -92.9767 229° Southwest 452 520 30,000  Level Kansas City Center
12:20PM 37.5142 -93.0969 229° Southwest 453 521 30,000  Level Kansas City Center
12:21PM 37.4328 -93.2206 230° Southwest 456 525 30,000  Level Kansas City Center
12:22PM 37.3439 -93.3756 234° Southwest 460 529 30,000  Level Kansas City Center
12:23PM 37.2978 -93.5219 248° West 454 522 30,000  Level Kansas City Center
12:24PM 37.2528 -93.6678 249° West 448 516 30,000  Level Kansas City Center
12:25PM 37.2067 -93.8122 248° West 446 513 30,000  Level Kansas City Center
12:26PM 37.1622 -93.9594 249° West 448 516 30,000 -300 Level Kansas City Center
12:27PM 37.1158 -94.1069 249° West 446 513 29,400 -1,020 Descending Kansas City Center
12:28PM 37.0697 -94.2511 248° West 446 513 27,900 -1,440 Descending Kansas City Center
12:29PM 37.0236 -94.3983 249° West 451 519 26,500 -1,740 Descending Kansas City Center
12:30PM 36.9661 -94.5761 248° West 456 525 24,400 -1,980 Descending Kansas City Center
12:31PM 36.9211 -94.7203 249° West 448 516 22,500 -1,920 Descending Kansas City Center
12:32PM 36.8742 -94.8617 247° West 445 512 20,500 -1,980 Descending Kansas City Center
12:33PM 36.8300 -94.9992 248° West 434 499 18,500 -1,860 Descending Kansas City Center
12:35PM 36.6792 -95.2067 228° Southwest 406 467 14,900 -1,860 Descending Kansas City Center
12:36PM 36.6428 -95.2500 224° Southwest 386 444 14,100 -2,160 Descending Kansas City Center
12:36PM 36.6014 -95.3025 226° Southwest 391 450 13,100 -1,800 Descending Kansas City Center
12:37PM 36.5083 -95.4136 224° Southwest 392 451 11,000 -1,500 Descending Kansas City Center
12:38PM 36.4503 -95.4897 227° Southwest 373 429 10,100 -540 Descending Kansas City Center
12:39PM 36.4119 -95.6111 249° West 336 387 10,000 -60 Descending Kansas City Center
12:40PM 36.3794 -95.7122 248° West 330 380 10,000  Level Kansas City Center
12:41PM 36.3728 -95.7367 251° West 329 379 10,000 -1,320 Level Kansas City Center
12:41PM 36.3494 -95.8017 246° West 274 315 8,700 -1,860 Descending Kansas City Center
12:42PM 36.3428 -95.8244 250° West 284 327 8,100 -2,220 Descending Kansas City Center
12:42PM 36.3208 -95.8833 245° Southwest 276 318 6,700 -2,280 Descending Kansas City Center
12:43PM 36.3125 -95.9142 251° West 281 323 5,800 -2,160 Descending Kansas City Center